createdAt,value
2022-12-29T00:02:05.268Z,2.35
2022-12-29T00:04:32.302Z,2.90
2022-12-29T00:07:05.172Z,3.03
2022-12-29T00:09:39.309Z,3.22
2022-12-29T00:12:13.023Z,2.45
2022-12-29T00:14:58.472Z,2.72
2022-12-29T00:17:32.038Z,2.53
2022-12-29T00:20:24.056Z,2.63
2022-12-29T00:23:35.997Z,3.00
2022-12-29T00:26:42.073Z,2.70
2022-12-29T00:29:34.131Z,2.28
2022-12-29T00:32:26.115Z,2.53
2022-12-29T00:35:18.316Z,3.08
2022-12-29T00:38:16.993Z,2.47
2022-12-29T00:41:10.228Z,2.65
2022-12-29T00:44:02.053Z,2.78
2022-12-29T00:46:35.087Z,2.45
2022-12-29T00:49:27.330Z,3.03
2022-12-29T00:52:02.049Z,2.53
2022-12-29T00:54:33.317Z,2.85
2022-12-29T00:57:09.301Z,2.10
2022-12-29T00:59:37.451Z,2.45
2022-12-29T01:02:11.473Z,3.00
2022-12-29T01:04:38.522Z,1.88
2022-12-29T01:07:12.222Z,2.42
2022-12-29T01:09:57.457Z,2.13
2022-12-29T01:12:48.105Z,1.95
2022-12-29T01:15:16.447Z,1.98
2022-12-29T01:17:50.135Z,2.00
2022-12-29T01:20:17.208Z,2.50
2022-12-29T01:22:45.127Z,2.03
2022-12-29T01:25:19.116Z,1.80
2022-12-29T01:27:53.308Z,1.73
2022-12-29T01:30:26.685Z,3.30
2022-12-29T01:32:53.549Z,1.95
2022-12-29T01:35:27.102Z,1.73
2022-12-29T01:37:54.046Z,2.60
2022-12-29T01:40:28.343Z,1.58
2022-12-29T01:42:55.315Z,1.75
2022-12-29T01:45:29.537Z,1.80
2022-12-29T01:48:11.301Z,1.45
2022-12-29T01:50:49.386Z,1.48
2022-12-29T01:53:37.394Z,1.30
2022-12-29T01:56:15.317Z,1.17
2022-12-29T01:58:47.025Z,1.02
2022-12-29T02:01:22.373Z,1.20
2022-12-29T02:03:57.199Z,1.20
2022-12-29T02:06:27.768Z,1.80
2022-12-29T02:09:03.161Z,2.17
2022-12-29T02:11:31.119Z,1.98
2022-12-29T02:14:05.240Z,2.25
2022-12-29T02:16:47.282Z,1.33
2022-12-29T02:19:42.175Z,1.40
2022-12-29T02:22:18.343Z,1.70
2022-12-29T02:25:03.263Z,1.20
2022-12-29T02:28:14.379Z,1.25
2022-12-29T02:30:59.438Z,1.95
2022-12-29T02:34:08.519Z,1.55
2022-12-29T02:36:55.428Z,1.55
2022-12-29T02:39:36.127Z,1.85
2022-12-29T02:42:20.149Z,1.35
2022-12-29T02:45:01.405Z,1.85
2022-12-29T02:47:43.355Z,1.90
2022-12-29T02:50:28.049Z,2.50
2022-12-29T02:53:07.247Z,1.83
2022-12-29T02:55:34.202Z,1.90
2022-12-29T02:58:16.282Z,2.05
2022-12-29T03:01:19.001Z,1.85
2022-12-29T03:04:14.250Z,2.75
2022-12-29T03:07:02.119Z,1.80
2022-12-29T03:09:49.225Z,1.77
2022-12-29T03:13:07.439Z,2.60
2022-12-29T03:16:12.217Z,1.63
2022-12-29T03:18:55.307Z,2.90
2022-12-29T03:22:11.444Z,2.97
2022-12-29T03:24:57.209Z,2.22
2022-12-29T03:27:37.387Z,1.65
2022-12-29T03:30:13.212Z,1.70
2022-12-29T03:33:03.218Z,1.73
2022-12-29T03:35:44.537Z,2.65
2022-12-29T03:38:24.744Z,2.10
2022-12-29T03:41:03.452Z,1.95
2022-12-29T03:43:31.184Z,1.30
2022-12-29T03:46:10.445Z,3.33
2022-12-29T03:48:44.301Z,2.55
2022-12-29T03:51:18.284Z,2.05
2022-12-29T03:53:45.733Z,2.25
2022-12-29T03:56:19.216Z,1.83
2022-12-29T03:58:52.313Z,2.65
2022-12-29T04:01:26.473Z,1.67
2022-12-29T04:03:53.904Z,3.78
2022-12-29T04:06:27.299Z,2.67
2022-12-29T04:09:00.184Z,2.65
2022-12-29T04:11:32.906Z,2.30
2022-12-29T04:14:06.193Z,2.25
2022-12-29T04:16:39.271Z,1.27
2022-12-29T04:19:16.101Z,2.17
2022-12-29T04:21:50.383Z,2.22
2022-12-29T04:24:30.485Z,2.95
2022-12-29T04:27:04.367Z,2.05
2022-12-29T04:29:31.513Z,2.38
2022-12-29T04:32:05.121Z,2.45
2022-12-29T04:34:31.785Z,2.55
2022-12-29T04:37:05.173Z,2.83
2022-12-29T04:39:38.600Z,2.13
2022-12-29T04:42:06.024Z,2.78
2022-12-29T04:44:44.888Z,2.08
2022-12-29T04:47:18.393Z,2.20
2022-12-29T04:49:45.684Z,3.17
2022-12-29T04:52:19.382Z,1.70
2022-12-29T04:54:46.496Z,1.40
2022-12-29T04:57:20.506Z,1.38
2022-12-29T04:59:47.408Z,1.25
2022-12-29T05:02:14.646Z,2.70
2022-12-29T05:04:48.366Z,2.10
2022-12-29T05:07:15.393Z,2.40
2022-12-29T05:09:49.443Z,1.70
2022-12-29T05:12:16.723Z,3.22
2022-12-29T05:14:51.301Z,1.67
2022-12-29T05:17:18.360Z,2.28
2022-12-29T05:19:52.437Z,1.73
2022-12-29T05:22:19.821Z,1.20
2022-12-29T05:25:07.555Z,3.28
2022-12-29T05:27:34.430Z,2.47
2022-12-29T05:30:08.333Z,3.22
2022-12-29T05:32:35.381Z,2.72
2022-12-29T05:35:02.568Z,2.67
2022-12-29T05:37:36.431Z,3.30
2022-12-29T05:40:04.338Z,1.20
2022-12-29T05:42:38.291Z,2.67
2022-12-29T05:45:08.419Z,1.88
2022-12-29T05:47:42.428Z,3.03
2022-12-29T05:50:10.064Z,2.55
2022-12-29T05:52:43.380Z,2.50
2022-12-29T05:55:10.683Z,2.95
2022-12-29T05:57:44.287Z,2.78
2022-12-29T06:00:19.287Z,3.85
2022-12-29T06:02:46.920Z,3.88
2022-12-29T06:05:20.339Z,3.13
2022-12-29T06:07:47.142Z,3.78
2022-12-29T06:10:20.200Z,1.48
2022-12-29T06:12:48.350Z,2.35
2022-12-29T06:15:22.166Z,4.43
2022-12-29T06:17:49.081Z,5.80
2022-12-29T06:20:22.257Z,3.63
2022-12-29T06:22:49.213Z,4.10
2022-12-29T06:25:30.294Z,3.08
2022-12-29T06:28:03.323Z,3.65
2022-12-29T06:30:36.259Z,3.63
2022-12-29T06:33:03.715Z,3.58
2022-12-29T06:35:37.212Z,3.47
2022-12-29T06:38:10.500Z,3.17
2022-12-29T06:40:46.670Z,3.67
2022-12-29T06:43:20.313Z,3.42
2022-12-29T06:45:47.189Z,2.00
2022-12-29T06:48:20.563Z,2.67
2022-12-29T06:50:47.271Z,3.03
2022-12-29T06:53:20.505Z,4.00
2022-12-29T06:55:48.843Z,2.88
2022-12-29T06:58:29.660Z,3.72
2022-12-29T07:00:56.713Z,3.60
2022-12-29T07:03:30.454Z,4.18
2022-12-29T07:06:06.275Z,4.63
2022-12-29T07:08:39.444Z,4.93
2022-12-29T07:11:07.343Z,5.43
2022-12-29T07:13:40.375Z,3.83
2022-12-29T07:16:15.976Z,5.82
2022-12-29T07:18:51.416Z,7.18
2022-12-29T07:21:18.993Z,4.55
2022-12-29T07:23:52.514Z,7.55
2022-12-29T07:26:29.256Z,5.45
2022-12-29T07:29:09.351Z,5.07
2022-12-29T07:31:36.425Z,5.13
2022-12-29T07:34:03.391Z,3.90
2022-12-29T07:36:37.368Z,3.58
2022-12-29T07:39:04.639Z,3.63
2022-12-29T07:41:38.340Z,4.63
2022-12-29T07:44:05.390Z,5.40
2022-12-29T07:46:55.809Z,3.80
2022-12-29T07:49:31.316Z,5.13
2022-12-29T07:52:05.433Z,5.90
2022-12-29T07:54:32.815Z,5.03
2022-12-29T07:57:08.468Z,4.07
2022-12-29T07:59:42.420Z,4.97
2022-12-29T08:02:19.384Z,5.03
2022-12-29T08:04:46.296Z,4.75
2022-12-29T08:07:13.137Z,4.78
2022-12-29T08:09:46.420Z,5.13
2022-12-29T08:12:19.276Z,7.40
2022-12-29T08:14:53.451Z,4.43
2022-12-29T08:17:20.137Z,4.60
2022-12-29T08:19:53.286Z,4.53
2022-12-29T08:22:19.974Z,6.95
2022-12-29T08:25:00.361Z,5.57
2022-12-29T08:27:34.556Z,5.15
2022-12-29T08:30:08.362Z,5.20
2022-12-29T08:32:35.159Z,3.63
2022-12-29T08:35:08.495Z,6.97
2022-12-29T08:37:35.659Z,3.67
2022-12-29T08:40:11.314Z,4.95
2022-12-29T08:42:38.666Z,6.43
2022-12-29T08:45:06.052Z,4.28
2022-12-29T08:47:41.803Z,7.72
2022-12-29T08:50:09.208Z,3.90
2022-12-29T08:52:42.414Z,4.30
2022-12-29T08:55:16.602Z,7.13
2022-12-29T08:57:43.425Z,6.05
2022-12-29T09:00:19.579Z,5.95
2022-12-29T09:02:53.558Z,7.00
2022-12-29T09:05:21.121Z,4.72
2022-12-29T09:07:54.500Z,7.55
2022-12-29T09:10:21.581Z,4.80
2022-12-29T09:12:49.427Z,5.03
2022-12-29T09:15:23.595Z,6.35
2022-12-29T09:17:57.560Z,4.82
2022-12-29T09:20:24.450Z,5.45
2022-12-29T09:22:51.944Z,8.18
2022-12-29T09:25:28.089Z,4.45
2022-12-29T09:28:06.080Z,5.70
2022-12-29T09:30:39.466Z,4.63
2022-12-29T09:33:06.742Z,6.60
2022-12-29T09:35:40.467Z,7.03
2022-12-29T09:38:14.629Z,7.97
2022-12-29T09:40:49.038Z,6.88
2022-12-29T09:43:19.049Z,5.80
2022-12-29T09:46:12.195Z,6.40
2022-12-29T09:48:44.919Z,4.35
2022-12-29T09:51:25.361Z,8.20
2022-12-29T09:53:59.914Z,5.90
2022-12-29T09:56:34.513Z,5.85
2022-12-29T09:59:32.529Z,5.47
2022-12-29T10:03:05.578Z,5.72
2022-12-29T10:05:43.011Z,6.03
2022-12-29T10:08:19.398Z,4.35
2022-12-29T10:10:58.040Z,6.15
2022-12-29T10:13:44.403Z,7.13
2022-12-29T10:16:21.601Z,5.70
2022-12-29T10:18:58.621Z,6.43
2022-12-29T10:21:44.572Z,5.45
2022-12-29T10:24:20.876Z,6.82
2022-12-29T10:27:04.625Z,5.38
2022-12-29T10:29:36.589Z,6.63
2022-12-29T10:32:39.694Z,3.88
2022-12-29T10:35:20.001Z,4.38
2022-12-29T10:37:58.596Z,5.60
2022-12-29T10:40:38.138Z,5.80
2022-12-29T10:43:31.321Z,5.40
2022-12-29T10:46:06.858Z,10.05
2022-12-29T10:48:42.278Z,3.25
2022-12-29T10:51:16.364Z,5.05
2022-12-29T10:53:54.265Z,3.53
2022-12-29T10:56:47.270Z,3.95
2022-12-29T10:59:27.426Z,4.30
2022-12-29T11:02:06.097Z,5.55
2022-12-29T11:04:42.604Z,4.53
2022-12-29T11:07:18.960Z,3.88
2022-12-29T11:09:47.938Z,4.47
2022-12-29T11:12:27.424Z,4.78
2022-12-29T11:15:16.369Z,4.25
2022-12-29T11:17:49.510Z,5.45
2022-12-29T11:20:36.284Z,3.45
2022-12-29T11:23:11.353Z,2.97
2022-12-29T11:25:44.473Z,2.47
2022-12-29T11:28:18.173Z,3.53
2022-12-29T11:30:51.440Z,6.72
2022-12-29T11:33:18.428Z,3.47
2022-12-29T11:35:45.456Z,5.80
2022-12-29T11:38:29.590Z,4.10
2022-12-29T11:41:00.255Z,4.43
2022-12-29T11:43:45.661Z,4.75
2022-12-29T11:46:24.398Z,4.28
2022-12-29T11:48:58.366Z,4.90
2022-12-29T11:51:36.326Z,4.88
2022-12-29T11:54:12.578Z,3.83
2022-12-29T11:56:44.704Z,5.43
2022-12-29T11:59:39.566Z,1.90
2022-12-29T12:02:30.504Z,3.40
2022-12-29T12:05:19.448Z,4.80
2022-12-29T12:07:52.376Z,6.63
2022-12-29T12:10:31.462Z,4.40
2022-12-29T12:13:06.480Z,5.90
2022-12-29T12:15:50.141Z,7.93
2022-12-29T12:18:51.042Z,3.38
2022-12-29T12:21:29.453Z,4.88
2022-12-29T12:24:01.961Z,4.38
2022-12-29T12:27:00.363Z,3.13
2022-12-29T12:29:38.718Z,5.53
2022-12-29T12:32:21.499Z,3.22
2022-12-29T12:34:56.493Z,6.72
2022-12-29T12:38:05.475Z,5.45
2022-12-29T12:41:21.325Z,6.82
2022-12-29T12:43:58.529Z,3.33
2022-12-29T12:46:47.039Z,5.75
2022-12-29T12:49:35.436Z,6.35
2022-12-29T12:52:30.374Z,4.05
2022-12-29T12:55:07.790Z,6.93
2022-12-29T12:58:02.595Z,4.70
2022-12-29T13:00:39.414Z,5.97
2022-12-29T13:03:48.513Z,4.35
2022-12-29T13:06:47.406Z,4.30
2022-12-29T13:09:32.452Z,3.67
2022-12-29T13:12:02.129Z,6.30
2022-12-29T13:14:44.465Z,7.22
2022-12-29T13:17:36.429Z,7.50
2022-12-29T13:20:42.515Z,5.03
2022-12-29T13:23:33.382Z,6.85
2022-12-29T13:26:29.428Z,6.10
2022-12-29T13:29:24.603Z,10.25
2022-12-29T13:32:20.437Z,7.35
2022-12-29T13:35:08.499Z,8.73
2022-12-29T13:37:58.414Z,6.28
2022-12-29T13:40:27.631Z,8.68
2022-12-29T13:43:02.539Z,6.57
2022-12-29T13:45:32.331Z,8.77
2022-12-29T13:48:09.432Z,7.40
2022-12-29T13:50:46.442Z,7.85
2022-12-29T13:53:38.388Z,12.68
2022-12-29T13:56:21.600Z,8.00
2022-12-29T13:59:11.460Z,10.13
2022-12-29T14:02:09.345Z,9.60
2022-12-29T14:04:43.543Z,8.15
2022-12-29T14:07:18.686Z,9.35
2022-12-29T14:09:59.424Z,7.93
2022-12-29T14:12:31.544Z,7.90
2022-12-29T14:15:23.499Z,9.18
2022-12-29T14:18:10.876Z,6.63
2022-12-29T14:20:45.466Z,8.18
2022-12-29T14:23:12.136Z,6.32
2022-12-29T14:26:14.560Z,8.85
2022-12-29T14:28:53.478Z,7.97
2022-12-29T14:31:28.458Z,7.40
2022-12-29T14:34:14.493Z,5.05
2022-12-29T14:37:03.429Z,6.30
2022-12-29T14:39:42.302Z,11.13
2022-12-29T14:42:18.416Z,8.32
2022-12-29T14:45:17.873Z,5.57
2022-12-29T14:47:55.581Z,9.05
2022-12-29T14:50:22.135Z,9.18
2022-12-29T14:53:06.415Z,8.00
2022-12-29T14:55:51.008Z,5.75
2022-12-29T14:58:35.453Z,10.45
2022-12-29T15:01:03.200Z,6.00
2022-12-29T15:03:43.400Z,11.15
2022-12-29T15:06:14.543Z,6.65
2022-12-29T15:08:55.511Z,5.30
2022-12-29T15:11:44.502Z,8.65
2022-12-29T15:14:41.585Z,11.35
2022-12-29T15:17:33.568Z,8.43
2022-12-29T15:20:24.491Z,7.03
2022-12-29T15:23:02.321Z,7.70
2022-12-29T15:25:43.721Z,8.90
2022-12-29T15:28:26.407Z,6.30
2022-12-29T15:31:11.456Z,9.98
2022-12-29T15:33:41.739Z,3.58
2022-12-29T15:36:23.448Z,5.30
2022-12-29T15:38:50.895Z,6.57
2022-12-29T15:41:36.531Z,6.90
2022-12-29T15:44:22.056Z,5.53
2022-12-29T15:46:55.483Z,5.32
2022-12-29T15:49:32.581Z,4.28
2022-12-29T15:51:59.793Z,3.75
2022-12-29T15:54:37.520Z,3.63
2022-12-29T15:57:05.111Z,6.38
2022-12-29T15:59:41.454Z,4.35
2022-12-29T16:02:12.710Z,3.42
2022-12-29T16:05:16.200Z,5.15
2022-12-29T16:07:43.455Z,3.35
2022-12-29T16:10:41.568Z,3.97
2022-12-29T16:13:20.465Z,3.65
2022-12-29T16:15:55.823Z,5.95
2022-12-29T16:18:30.502Z,2.95
2022-12-29T16:21:09.747Z,3.80
2022-12-29T16:23:38.274Z,5.25
2022-12-29T16:26:25.501Z,4.32
2022-12-29T16:29:10.539Z,5.28
2022-12-29T16:31:51.897Z,6.03
2022-12-29T16:34:52.540Z,4.57
2022-12-29T16:37:28.620Z,4.25
2022-12-29T16:40:01.643Z,5.45
2022-12-29T16:42:50.596Z,7.32
2022-12-29T16:45:28.867Z,9.10
2022-12-29T16:48:14.494Z,6.35
2022-12-29T16:50:50.477Z,8.15
2022-12-29T16:53:25.564Z,5.43
2022-12-29T16:56:23.507Z,7.85
2022-12-29T16:58:59.611Z,6.20
2022-12-29T17:01:32.551Z,7.13
2022-12-29T17:04:05.826Z,7.20
2022-12-29T17:06:39.497Z,5.38
2022-12-29T17:09:20.565Z,6.80
2022-12-29T17:12:10.434Z,3.85
2022-12-29T17:14:53.840Z,5.93
2022-12-29T17:17:50.529Z,8.35
2022-12-29T17:20:25.873Z,6.15
2022-12-29T17:23:00.477Z,6.15
2022-12-29T17:25:44.537Z,4.05
2022-12-29T17:28:27.592Z,7.28
2022-12-29T17:31:10.482Z,6.95
2022-12-29T17:33:46.523Z,4.80
2022-12-29T17:36:13.313Z,4.70
2022-12-29T17:38:46.453Z,6.97
2022-12-29T17:41:21.598Z,5.60
2022-12-29T17:43:54.545Z,7.03
2022-12-29T17:46:21.459Z,5.65
2022-12-29T17:48:54.625Z,4.68
2022-12-29T17:51:22.651Z,4.22
2022-12-29T17:53:50.403Z,4.20
2022-12-29T17:56:23.530Z,6.00
2022-12-29T17:58:50.703Z,3.65
2022-12-29T18:01:32.553Z,6.35
2022-12-29T18:04:09.533Z,2.88
2022-12-29T18:06:42.538Z,5.35
2022-12-29T18:09:10.799Z,5.35
2022-12-29T18:11:49.494Z,5.35
2022-12-29T18:14:17.393Z,4.40
2022-12-29T18:16:50.593Z,5.03
2022-12-29T18:19:17.372Z,5.00
2022-12-29T18:21:50.545Z,4.63
2022-12-29T18:24:23.543Z,3.53
2022-12-29T18:26:57.672Z,4.18
2022-12-29T18:29:30.594Z,3.13
2022-12-29T18:32:03.508Z,7.95
2022-12-29T18:34:36.721Z,5.93
2022-12-29T18:37:10.621Z,4.80
2022-12-29T18:39:37.414Z,4.97
2022-12-29T18:42:05.227Z,3.88
2022-12-29T18:44:38.542Z,4.40
2022-12-29T18:47:07.049Z,5.97
2022-12-29T18:49:33.803Z,3.95
2022-12-29T18:52:06.555Z,4.35
2022-12-29T18:54:34.290Z,6.05
2022-12-29T18:57:07.578Z,4.07
2022-12-29T18:59:34.287Z,7.20
2022-12-29T19:02:07.617Z,6.68
2022-12-29T19:04:40.711Z,7.57
2022-12-29T19:07:13.540Z,3.78
2022-12-29T19:09:40.298Z,5.50
2022-12-29T19:12:13.565Z,6.15
2022-12-29T19:14:40.343Z,8.20
2022-12-29T19:17:18.513Z,21.13
2022-12-29T19:19:51.606Z,5.25
2022-12-29T19:22:24.560Z,6.53
2022-12-29T19:25:00.163Z,4.10
2022-12-29T19:27:34.928Z,7.35
2022-12-29T19:30:10.628Z,5.53
2022-12-29T19:32:43.653Z,7.57
2022-12-29T19:35:11.753Z,8.23
2022-12-29T19:37:47.645Z,3.33
2022-12-29T19:40:23.588Z,5.90
2022-12-29T19:42:51.255Z,3.53
2022-12-29T19:45:24.819Z,6.85
2022-12-29T19:47:53.246Z,6.07
2022-12-29T19:50:26.782Z,6.97
2022-12-29T19:53:01.837Z,4.13
2022-12-29T19:55:38.584Z,6.03
2022-12-29T19:58:05.321Z,6.68
2022-12-29T20:00:38.665Z,5.40
2022-12-29T20:03:05.385Z,6.47
2022-12-29T20:05:38.600Z,7.70
2022-12-29T20:11:43.556Z,9.40
2022-12-29T20:14:10.117Z,6.03
2022-12-29T20:17:08.857Z,4.78
2022-12-29T20:19:37.556Z,7.43
2022-12-29T20:22:12.622Z,8.55
2022-12-29T20:24:43.883Z,8.70
2022-12-29T20:27:27.607Z,6.43
2022-12-29T20:29:54.345Z,9.65
2022-12-29T20:32:29.800Z,7.70
2022-12-29T20:34:56.623Z,7.40
2022-12-29T20:37:29.614Z,6.22
2022-12-29T20:40:02.611Z,9.43
2022-12-29T20:42:29.399Z,6.38
2022-12-29T20:45:02.591Z,7.57
2022-12-29T20:47:29.259Z,7.45
2022-12-29T20:50:02.658Z,6.03
2022-12-29T20:52:35.835Z,11.25
2022-12-29T20:55:09.762Z,11.60
2022-12-29T20:58:13.668Z,7.72
2022-12-29T21:00:29.797Z,6.88
2022-12-29T21:02:58.065Z,9.75
2022-12-29T21:05:31.826Z,9.85
2022-12-29T21:07:59.876Z,10.63
2022-12-29T21:10:33.618Z,9.88
2022-12-29T21:13:08.649Z,8.50
2022-12-29T21:15:41.626Z,11.30
2022-12-29T21:18:14.630Z,9.48
2022-12-29T21:20:48.729Z,13.55
2022-12-29T21:23:21.634Z,10.48
2022-12-29T21:25:55.743Z,8.60
2022-12-29T21:28:35.814Z,8.35
2022-12-29T21:31:28.219Z,13.20
2022-12-29T21:34:02.663Z,12.60
2022-12-29T21:36:30.385Z,9.63
2022-12-29T21:39:04.613Z,10.77
2022-12-29T21:41:32.050Z,12.98
2022-12-29T21:44:23.587Z,11.27
2022-12-29T21:46:58.855Z,12.95
2022-12-29T21:49:33.641Z,10.23
2022-12-29T21:52:00.318Z,10.05
2022-12-29T21:54:53.661Z,10.25
2022-12-29T21:57:38.611Z,11.20
2022-12-29T22:00:32.616Z,11.73
2022-12-29T22:03:22.910Z,10.45
2022-12-29T22:06:16.623Z,10.15
2022-12-29T22:09:03.330Z,8.80
2022-12-29T22:11:55.688Z,11.68
2022-12-29T22:14:28.689Z,10.70
2022-12-29T22:16:55.389Z,9.65
2022-12-29T22:19:28.636Z,12.55
2022-12-29T22:22:01.651Z,12.52
2022-12-29T22:24:28.328Z,10.60
2022-12-29T22:27:09.981Z,13.15
2022-12-29T22:29:43.015Z,11.73
2022-12-29T22:32:15.694Z,9.27
2022-12-29T22:34:48.599Z,12.38
2022-12-29T22:37:16.260Z,10.57
2022-12-29T22:39:49.681Z,11.35
2022-12-29T22:42:16.264Z,12.93
2022-12-29T22:44:49.654Z,10.45
2022-12-29T22:47:16.373Z,6.97
2022-12-29T22:49:49.614Z,8.27
2022-12-29T22:52:22.658Z,9.95
2022-12-29T22:54:56.744Z,9.73
2022-12-29T22:57:31.699Z,11.68
2022-12-29T22:59:58.394Z,9.48
2022-12-29T23:02:31.906Z,14.02
2022-12-29T23:05:03.679Z,8.77
2022-12-29T23:07:37.665Z,13.10
2022-12-29T23:10:05.669Z,8.65
2022-12-29T23:12:39.642Z,11.32
2022-12-29T23:15:06.892Z,9.00
2022-12-29T23:17:39.678Z,9.88
2022-12-29T23:20:07.666Z,10.07
2022-12-29T23:22:40.681Z,11.68
2022-12-29T23:25:07.789Z,9.23
2022-12-29T23:27:40.651Z,11.55
2022-12-29T23:30:07.996Z,7.50
2022-12-29T23:32:41.727Z,11.18
2022-12-29T23:35:09.906Z,7.03
2022-12-29T23:37:42.660Z,10.15
2022-12-29T23:40:16.808Z,11.02
2022-12-29T23:42:49.680Z,11.90
2022-12-29T23:45:22.753Z,9.50
2022-12-29T23:47:49.360Z,4.05
2022-12-29T23:50:22.716Z,8.57
2022-12-29T23:52:49.353Z,10.05
2022-12-29T23:55:22.714Z,9.48
2022-12-29T23:57:49.279Z,7.40
